Time;durP1;ratioP1;P1;durP2;ratioP2;P2;SDS_P1;SDS_P2;PMS_P1;PMS_P2;Temp;Humidity;BMP_temperature;BMP_pressure;BME280_temperature;BME280_humidity;BME280_pressure;Samples;Min_cycle;Max_cycle;Signal;HPM_P1;HPM_P2
2022/01/18 00:01:51;;;;;;;9.57;6.23;;;5.70;99.90;;;;;;4977532;28;20964;-70
2022/01/18 00:04:18;;;;;;;10.67;6.70;;;5.80;99.90;;;;;;4987667;28;20482;-70
2022/01/18 00:06:48;;;;;;;8.37;6.00;;;5.90;99.90;;;;;;4980283;28;20544;-71
2022/01/18 00:09:18;;;;;;;10.13;6.40;;;6.00;99.90;;;;;;4982439;28;20459;-70
2022/01/18 00:11:49;;;;;;;8.50;5.30;;;6.00;99.90;;;;;;4991795;28;20465;-70
2022/01/18 00:14:25;;;;;;;9.17;6.17;;;5.90;99.90;;;;;;5000360;28;20449;-72
2022/01/18 00:17:05;;;;;;;14.40;6.00;;;6.00;99.90;;;;;;4978443;28;20575;-70
2022/01/18 00:19:39;;;;;;;8.53;5.90;;;5.80;99.90;;;;;;4982929;28;20540;-70
2022/01/18 00:22:12;;;;;;;8.33;6.43;;;5.90;99.90;;;;;;4991086;28;20515;-71
2022/01/18 00:24:41;;;;;;;8.13;5.53;;;5.90;99.90;;;;;;4979152;28;20450;-70
2022/01/18 00:27:11;;;;;;;9.27;6.33;;;6.00;99.90;;;;;;4980867;28;20981;-71
2022/01/18 00:29:46;;;;;;;12.87;8.33;;;6.00;99.90;;;;;;4979821;28;20915;-70
2022/01/18 00:32:22;;;;;;;10.90;6.00;;;6.00;99.90;;;;;;4993039;28;20449;-71
2022/01/18 00:34:52;;;;;;;7.50;5.77;;;6.00;99.90;;;;;;4980774;28;20453;-71
2022/01/18 00:37:32;;;;;;;6.30;5.57;;;6.00;99.90;;;;;;4985144;28;20481;-71
2022/01/18 00:39:59;;;;;;;7.93;5.53;;;5.90;99.90;;;;;;4979520;28;20445;-71
2022/01/18 00:42:26;;;;;;;9.37;5.73;;;6.00;99.90;;;;;;4986756;28;20454;-71
2022/01/18 00:44:55;;;;;;;10.07;7.00;;;6.00;99.90;;;;;;4978009;28;20457;-70
2022/01/18 00:47:22;;;;;;;9.77;6.00;;;6.20;99.90;;;;;;4986777;28;20547;-70
2022/01/18 00:49:57;;;;;;;9.27;6.10;;;6.20;98.70;;;;;;4973798;28;20450;-71
2022/01/18 00:52:24;;;;;;;9.97;6.10;;;6.20;99.90;;;;;;4979482;28;20449;-70
2022/01/18 00:54:52;;;;;;;8.10;5.70;;;6.20;99.90;;;;;;4983446;28;20461;-71
2022/01/18 00:57:19;;;;;;;9.57;6.23;;;6.30;54.20;;;;;;4984114;28;20477;-71
2022/01/18 00:59:47;;;;;;;9.50;6.57;;;6.30;86.30;;;;;;4972986;28;20541;-71
2022/01/18 01:02:16;;;;;;;10.27;6.73;;;6.40;15.20;;;;;;4982618;28;20838;-70
2022/01/18 01:04:47;;;;;;;11.27;6.30;;;6.50;10.30;;;;;;4984768;28;20531;-71
2022/01/18 01:07:15;;;;;;;9.20;7.50;;;6.40;25.10;;;;;;4982747;28;20459;-71
2022/01/18 01:09:42;;;;;;;9.20;6.60;;;6.20;30.80;;;;;;4986123;28;20446;-70
2022/01/18 01:12:11;;;;;;;8.53;6.27;;;6.10;88.60;;;;;;4978967;28;20954;-70
2022/01/18 01:14:38;;;;;;;11.37;7.60;;;6.20;95.80;;;;;;4988784;28;20446;-71
2022/01/18 01:17:18;;;;;;;10.07;6.73;;;6.20;98.40;;;;;;4989748;28;20586;-71
2022/01/18 01:36:48;;;;;;;10.17;6.37;;;6.40;99.90;;;;;;4980909;28;20491;-71
2022/01/18 01:42:06;;;;;;;12.87;6.67;;;6.30;99.90;;;;;;4975215;28;20437;-70
2022/01/18 01:44:48;;;;;;;8.80;6.30;;;6.30;99.90;;;;;;4986000;28;20462;-70
2022/01/18 01:47:20;;;;;;;9.63;6.83;;;6.40;99.90;;;;;;4979112;28;20450;-71
2022/01/18 01:49:50;;;;;;;9.60;6.67;;;6.50;98.10;;;;;;4978756;28;20445;-70
2022/01/18 01:52:21;;;;;;;12.40;6.80;;;6.40;99.90;;;;;;4984953;28;20858;-71
2022/01/18 01:54:48;;;;;;;11.67;6.47;;;6.40;99.90;;;;;;4979192;28;20537;-71
2022/01/18 01:57:15;;;;;;;10.60;6.80;;;6.40;99.90;;;;;;4979185;28;20638;-71
2022/01/18 01:59:42;;;;;;;11.67;6.70;;;6.40;99.90;;;;;;4986708;28;20549;-71
2022/01/18 02:02:09;;;;;;;11.03;7.07;;;6.50;99.90;;;;;;4977300;28;20454;-71
2022/01/18 02:04:36;;;;;;;14.70;7.83;;;6.50;98.60;;;;;;4973157;28;20946;-70
2022/01/18 02:07:04;;;;;;;14.43;9.70;;;6.40;99.60;;;;;;4985524;28;20544;-71
2022/01/18 02:09:32;;;;;;;14.73;8.93;;;6.40;99.90;;;;;;4978154;28;20528;-70
2022/01/18 02:12:01;;;;;;;11.13;7.50;;;6.50;99.90;;;;;;4985325;28;20530;-70
2022/01/18 02:14:31;;;;;;;11.03;8.07;;;6.50;99.90;;;;;;4977087;28;20446;-71
2022/01/18 02:22:29;;;;;;;14.90;8.70;;;6.50;38.70;;;;;;4980731;28;20424;-70
2022/01/18 02:24:56;;;;;;;16.57;8.63;;;6.50;15.90;;;;;;4976471;28;20460;-70
2022/01/18 02:27:23;;;;;;;14.53;8.60;;;6.50;47.50;;;;;;4987700;28;20492;-70
2022/01/18 02:29:50;;;;;;;12.17;8.63;;;6.30;99.90;;;;;;4977972;28;20537;-70
2022/01/18 02:32:17;;;;;;;15.70;9.20;;;6.50;94.20;;;;;;4981514;28;20445;-70
2022/01/18 02:34:43;;;;;;;11.90;8.30;;;6.60;1.00;;;;;;4979579;28;20453;-70
2022/01/18 02:37:14;;;;;;;13.90;8.70;;;6.60;1.00;;;;;;4991284;28;20481;-70
2022/01/18 02:39:42;;;;;;;13.43;7.80;;;6.50;1.00;;;;;;4983416;28;20457;-70
2022/01/18 02:42:11;;;;;;;17.67;9.03;;;6.40;1.00;;;;;;4983639;28;20539;-70
2022/01/18 02:44:38;;;;;;;15.80;8.80;;;6.50;35.00;;;;;;4988768;28;20870;-70
2022/01/18 02:47:05;;;;;;;10.90;8.23;;;6.50;23.10;;;;;;4977382;28;21040;-70
2022/01/18 02:49:33;;;;;;;14.20;8.67;;;6.50;1.00;;;;;;4976514;28;20536;-70
2022/01/18 02:52:02;;;;;;;12.47;8.17;;;6.50;1.00;;;;;;4985135;28;20465;-70
2022/01/18 02:54:29;;;;;;;12.30;9.20;;;6.50;1.00;;;;;;4975270;28;20546;-70
2022/01/18 02:57:01;;;;;;;13.77;8.53;;;6.60;1.00;;;;;;4983183;28;20804;-70
2022/01/18 02:59:33;;;;;;;14.77;9.70;;;6.60;1.00;;;;;;4974400;28;20446;-70
2022/01/18 03:04:48;;;;;;;10.13;8.23;;;6.40;1.00;;;;;;4976906;28;20470;-70
2022/01/18 03:07:15;;;;;;;14.00;8.67;;;6.40;3.00;;;;;;4976637;28;20463;-70
2022/01/18 03:09:42;;;;;;;15.37;9.03;;;6.40;1.00;;;;;;4983185;28;20537;-70
2022/01/18 03:12:11;;;;;;;14.23;8.03;;;6.40;19.30;;;;;;4985518;28;20548;-70
2022/01/18 03:14:39;;;;;;;11.87;8.77;;;6.50;1.00;;;;;;4989179;28;20446;-69
2022/01/18 03:17:06;;;;;;;14.37;9.70;;;6.40;1.00;;;;;;4982706;28;20488;-70
2022/01/18 03:19:34;;;;;;;14.10;9.10;;;6.30;1.00;;;;;;4983342;28;20454;-70
2022/01/18 03:22:01;;;;;;;14.57;8.67;;;6.40;1.00;;;;;;4991211;28;20445;-70
2022/01/18 03:24:59;;;;;;;19.10;9.03;;;6.40;1.00;;;;;;4983578;28;20485;-70
2022/01/18 03:30:13;;;;;;;12.47;8.50;;;6.40;1.00;;;;;;4981266;28;20443;-70
2022/01/18 03:32:40;;;;;;;14.80;9.90;;;6.50;1.00;;;;;;4982127;28;20815;-70
2022/01/18 03:35:09;;;;;;;15.57;9.43;;;6.40;1.00;;;;;;4987003;28;20508;-70
2022/01/18 03:37:37;;;;;;;15.10;9.97;;;6.40;1.00;;;;;;4994041;28;20494;-70
2022/01/18 03:40:05;;;;;;;11.77;8.20;;;6.40;1.00;;;;;;4981159;28;20460;-72
2022/01/18 03:42:38;;;;;;;11.93;8.83;;;6.40;1.00;;;;;;4985656;28;20448;-71
2022/01/18 03:45:07;;;;;;;18.03;8.90;;;6.30;1.00;;;;;;4986113;28;20793;-71
2022/01/18 03:47:35;;;;;;;14.20;8.43;;;6.50;1.00;;;;;;4977550;28;20478;-70
2022/01/18 03:50:02;;;;;;;15.43;9.50;;;6.40;52.00;;;;;;4985215;28;20454;-71
2022/01/18 03:52:29;;;;;;;14.50;9.30;;;6.40;60.70;;;;;;4987454;28;20503;-70
2022/01/18 03:54:56;;;;;;;13.97;9.00;;;6.50;39.80;;;;;;4982442;28;21142;-70
2022/01/18 03:57:23;;;;;;;15.47;8.97;;;6.50;11.40;;;;;;4980881;28;20521;-72
2022/01/18 03:59:52;;;;;;;11.27;8.40;;;6.60;49.90;;;;;;4987982;28;20480;-71
2022/01/18 04:02:19;;;;;;;12.57;9.17;;;6.60;1.00;;;;;;4980452;28;21027;-75
2022/01/18 04:04:46;;;;;;;13.47;8.53;;;6.60;9.00;;;;;;4983275;28;20472;-72
2022/01/18 04:07:13;;;;;;;12.83;7.70;;;6.60;1.00;;;;;;4987321;28;20460;-71
2022/01/18 04:09:40;;;;;;;13.23;8.10;;;6.60;1.00;;;;;;4983858;28;20445;-70
2022/01/18 04:12:08;;;;;;;14.60;8.60;;;6.50;16.90;;;;;;4980503;28;20536;-70
2022/01/18 04:14:35;;;;;;;12.03;8.40;;;6.40;99.90;;;;;;4984549;28;20862;-71
2022/01/18 04:17:10;;;;;;;13.20;9.17;;;6.40;97.20;;;;;;4980238;28;20883;-72
2022/01/18 04:27:59;;;;;;;18.93;10.40;;;6.40;99.90;;;;;;4992687;28;20432;-69
2022/01/18 04:30:26;;;;;;;14.50;10.50;;;6.40;80.20;;;;;;4981630;28;20449;-72
2022/01/18 04:32:55;;;;;;;18.40;11.00;;;6.40;17.30;;;;;;4979451;28;20538;-72
2022/01/18 04:35:21;;;;;;;22.27;11.63;;;6.50;16.40;;;;;;4993023;28;20488;-72
2022/01/18 04:37:48;;;;;;;16.20;10.30;;;6.50;1.00;;;;;;4990428;28;20495;-72
2022/01/18 04:40:18;;;;;;;15.03;10.27;;;6.50;3.40;;;;;;4982494;28;20544;-72
2022/01/18 04:43:08;;;;;;;17.27;9.90;;;6.50;1.00;;;;;;4983852;28;20953;-72
2022/01/18 04:48:32;;;;;;;16.90;10.03;;;6.60;1.00;;;;;;4981758;28;20501;-72
2022/01/18 04:51:01;;;;;;;17.23;10.17;;;6.60;1.00;;;;;;4979156;28;20456;-72
2022/01/18 04:53:31;;;;;;;22.33;11.90;;;6.50;1.00;;;;;;4982574;28;20540;-72
2022/01/18 04:56:00;;;;;;;18.57;10.70;;;6.40;1.00;;;;;;4986209;28;21419;-72
2022/01/18 04:58:27;;;;;;;20.70;12.37;;;6.40;1.00;;;;;;4984860;28;20921;-72
2022/01/18 05:00:58;;;;;;;19.20;11.43;;;6.30;1.00;;;;;;4978961;28;20457;-72
2022/01/18 05:03:27;;;;;;;21.57;12.80;;;6.40;1.00;;;;;;4980822;28;20789;-72
2022/01/18 05:05:56;;;;;;;18.20;11.20;;;6.40;1.00;;;;;;4985774;28;20456;-72
2022/01/18 05:08:23;;;;;;;18.73;11.83;;;6.40;1.00;;;;;;4986155;28;20463;-72
2022/01/18 05:10:54;;;;;;;17.40;11.23;;;6.30;1.00;;;;;;4978932;28;20963;-72
2022/01/18 05:13:45;;;;;;;18.37;11.13;;;6.40;1.00;;;;;;4997983;28;20455;-72
2022/01/18 05:16:29;;;;;;;20.80;11.93;;;6.50;1.00;;;;;;4981843;28;20481;-72
2022/01/18 05:19:04;;;;;;;18.70;12.80;;;6.40;1.00;;;;;;4978882;28;20453;-72
2022/01/18 05:21:36;;;;;;;19.03;10.63;;;6.40;1.00;;;;;;4979127;28;20929;-72
2022/01/18 05:24:02;;;;;;;19.13;12.20;;;6.30;1.00;;;;;;4983971;28;20964;-72
2022/01/18 05:26:30;;;;;;;20.87;12.67;;;6.30;1.00;;;;;;4985843;28;20482;-72
2022/01/18 05:28:58;;;;;;;18.53;11.63;;;6.30;1.00;;;;;;4981247;28;20885;-72
2022/01/18 05:31:25;;;;;;;20.47;13.60;;;6.30;1.00;;;;;;4978572;28;20451;-71
2022/01/18 05:33:52;;;;;;;16.33;11.00;;;6.30;1.00;;;;;;4983068;28;20465;-72
2022/01/18 05:36:20;;;;;;;19.60;12.10;;;6.30;1.00;;;;;;4988681;28;20564;-72
2022/01/18 05:38:47;;;;;;;19.00;10.60;;;6.40;1.00;;;;;;4981963;28;20998;-72
2022/01/18 05:41:14;;;;;;;18.77;11.87;;;6.30;1.00;;;;;;4985178;28;20513;-72
2022/01/18 05:43:41;;;;;;;21.93;12.20;;;6.30;1.00;;;;;;4986746;28;20468;-72
2022/01/18 05:46:08;;;;;;;23.00;12.23;;;6.30;1.00;;;;;;4978947;28;20455;-72
2022/01/18 05:48:35;;;;;;;19.80;11.03;;;6.20;1.00;;;;;;4981077;28;20460;-73
2022/01/18 05:51:02;;;;;;;19.10;11.47;;;6.20;1.00;;;;;;4984810;28;20456;-72
2022/01/18 05:53:31;;;;;;;21.20;12.70;;;6.20;1.00;;;;;;4983716;28;20471;-72
2022/01/18 05:55:58;;;;;;;20.40;11.50;;;6.20;1.00;;;;;;4978224;28;20559;-73
2022/01/18 05:58:25;;;;;;;20.57;10.70;;;6.20;1.00;;;;;;4980407;28;20580;-73
2022/01/18 06:00:54;;;;;;;18.27;11.80;;;6.10;1.00;;;;;;4984203;28;20452;-72
2022/01/18 06:03:27;;;;;;;20.00;12.93;;;6.00;1.00;;;;;;4984324;28;20511;-73
2022/01/18 06:08:46;;;;;;;17.30;10.77;;;6.10;1.00;;;;;;4974561;28;20525;-72
2022/01/18 06:11:13;;;;;;;22.77;10.80;;;6.20;1.00;;;;;;4982103;28;20460;-72
2022/01/18 06:13:40;;;;;;;19.10;11.00;;;6.30;1.00;;;;;;4995526;28;20433;-72
2022/01/18 06:16:07;;;;;;;17.80;11.93;;;6.30;1.00;;;;;;4981326;28;20490;-72
2022/01/18 06:18:34;;;;;;;19.33;11.70;;;6.40;1.00;;;;;;4985125;28;20496;-72
2022/01/18 06:21:01;;;;;;;16.70;11.63;;;6.30;1.00;;;;;;4982811;28;20933;-72
2022/01/18 06:23:28;;;;;;;18.67;11.37;;;6.20;1.00;;;;;;4978467;28;21012;-72
2022/01/18 06:25:58;;;;;;;17.73;10.90;;;6.20;1.00;;;;;;4979789;28;20496;-73
2022/01/18 06:28:25;;;;;;;18.83;11.80;;;6.10;1.00;;;;;;4985576;28;20468;-72
2022/01/18 06:30:52;;;;;;;15.70;10.57;;;6.10;1.00;;;;;;4982929;28;20449;-72
2022/01/18 06:33:19;;;;;;;21.80;12.20;;;6.30;1.00;;;;;;4978555;28;20795;-72
2022/01/18 06:35:46;;;;;;;17.37;10.70;;;6.30;1.00;;;;;;4990978;28;20527;-72
2022/01/18 06:38:13;;;;;;;20.23;10.40;;;6.20;1.00;;;;;;4986422;28;20485;-72
2022/01/18 06:40:40;;;;;;;20.80;12.23;;;6.10;1.00;;;;;;4982823;28;20461;-71
2022/01/18 06:43:08;;;;;;;17.73;11.00;;;6.10;1.00;;;;;;4983467;28;20548;-72
2022/01/18 06:45:35;;;;;;;14.50;10.73;;;6.10;1.00;;;;;;4979418;28;20450;-70
2022/01/18 06:48:02;;;;;;;18.90;11.50;;;6.20;1.00;;;;;;4987346;28;20460;-72
2022/01/18 06:50:29;;;;;;;25.90;14.67;;;6.10;1.00;;;;;;4988172;28;20454;-72
2022/01/18 06:52:56;;;;;;;22.10;12.87;;;6.00;1.00;;;;;;4981200;28;20528;-72
2022/01/18 06:55:23;;;;;;;24.67;13.80;;;6.10;1.00;;;;;;4982923;28;20866;-73
2022/01/18 06:57:50;;;;;;;30.00;13.10;;;6.10;1.00;;;;;;4987602;28;20620;-72
2022/01/18 07:00:19;;;;;;;20.33;12.03;;;5.90;1.00;;;;;;4988772;28;20485;-72
2022/01/18 07:02:46;;;;;;;20.17;12.20;;;5.90;1.00;;;;;;4981550;28;20528;-72
2022/01/18 07:05:12;;;;;;;21.37;12.50;;;5.90;1.00;;;;;;4981888;28;20803;-72
2022/01/18 07:07:39;;;;;;;24.17;13.43;;;5.90;11.40;;;;;;4987154;28;20462;-71
2022/01/18 07:10:08;;;;;;;22.43;13.70;;;5.90;10.80;;;;;;4988358;28;20535;-72
2022/01/18 07:12:35;;;;;;;22.23;13.33;;;6.00;15.70;;;;;;4986523;28;20798;-72
2022/01/18 07:15:03;;;;;;;24.10;13.50;;;6.00;3.00;;;;;;4998751;28;20480;-71
2022/01/18 07:17:31;;;;;;;22.83;12.73;;;5.80;45.10;;;;;;4982746;28;21069;-72
2022/01/18 07:19:58;;;;;;;21.93;12.43;;;5.90;86.80;;;;;;4981106;28;20849;-72
2022/01/18 07:22:25;;;;;;;20.60;12.90;;;5.90;1.00;;;;;;4986107;28;20465;-72
2022/01/18 07:24:56;;;;;;;25.77;12.87;;;6.00;1.00;;;;;;4987381;28;20480;-72
2022/01/18 07:27:23;;;;;;;20.73;12.30;;;5.90;1.00;;;;;;4983462;28;20449;-72
2022/01/18 07:29:51;;;;;;;21.53;12.50;;;5.80;61.90;;;;;;4980580;28;20518;-72
2022/01/18 07:32:18;;;;;;;21.57;14.77;;;5.80;50.80;;;;;;4985065;28;20485;-72
2022/01/18 07:34:52;;;;;;;18.07;11.60;;;5.90;35.10;;;;;;4989715;28;20937;-72
2022/01/18 07:37:20;;;;;;;23.30;12.03;;;5.80;1.00;;;;;;4994324;28;20944;-72
2022/01/18 07:39:48;;;;;;;15.77;10.60;;;5.80;1.00;;;;;;4980723;28;20488;-72
2022/01/18 07:42:16;;;;;;;16.33;10.33;;;6.00;7.70;;;;;;4984583;28;20442;-72
2022/01/18 07:44:43;;;;;;;19.57;12.20;;;6.00;1.00;;;;;;4990269;28;20456;-71
2022/01/18 07:47:09;;;;;;;19.50;10.43;;;6.10;1.00;;;;;;4986188;28;20481;-71
2022/01/18 07:49:37;;;;;;;21.57;12.30;;;6.10;1.00;;;;;;4980609;28;20945;-71
2022/01/18 07:52:06;;;;;;;19.70;11.97;;;6.00;1.00;;;;;;4982678;28;20532;-72
2022/01/18 07:54:33;;;;;;;20.40;12.07;;;6.20;91.60;;;;;;4987646;28;20513;-71
2022/01/18 07:57:00;;;;;;;20.10;10.70;;;6.00;1.00;;;;;;4986343;28;20513;-71
2022/01/18 07:59:27;;;;;;;18.80;11.17;;;6.30;99.90;;;;;;4979359;28;20492;-71
2022/01/18 08:01:54;;;;;;;18.10;10.13;;;6.30;1.00;;;;;;4980888;28;20486;-71
2022/01/18 08:04:21;;;;;;;18.33;11.50;;;6.30;1.00;;;;;;4987847;28;20482;-71
2022/01/18 08:06:48;;;;;;;19.40;10.60;;;6.20;1.00;;;;;;4986166;28;20800;-70
2022/01/18 08:09:19;;;;;;;17.83;11.00;;;6.30;1.00;;;;;;4980611;28;20459;-71
2022/01/18 08:11:46;;;;;;;19.33;11.50;;;6.30;1.00;;;;;;4980056;28;20485;-71
2022/01/18 08:14:14;;;;;;;21.50;12.13;;;6.30;1.00;;;;;;5003924;28;20477;-71
2022/01/18 08:17:00;;;;;;;21.90;12.37;;;6.20;1.00;;;;;;4980291;28;20856;-71
2022/01/18 08:19:28;;;;;;;20.70;11.83;;;6.60;1.00;;;;;;4984075;28;20489;-71
2022/01/18 08:21:55;;;;;;;26.83;12.93;;;6.80;1.00;;;;;;4986108;28;20537;-71
2022/01/18 08:24:23;;;;;;;16.53;9.97;;;6.80;99.90;;;;;;4984541;28;20884;-71
2022/01/18 08:26:50;;;;;;;20.03;11.63;;;6.40;99.90;;;;;;4979579;28;20520;-71
2022/01/18 08:29:17;;;;;;;22.63;10.20;;;6.30;99.90;;;;;;4982958;28;20934;-71
2022/01/18 08:31:45;;;;;;;19.47;11.30;;;6.10;1.00;;;;;;4986268;28;20533;-71
2022/01/18 08:34:12;;;;;;;17.17;10.30;;;6.10;1.00;;;;;;4984315;28;20463;-71
2022/01/18 08:36:40;;;;;;;14.27;10.03;;;6.20;1.00;;;;;;4992321;28;20451;-70
2022/01/18 08:39:07;;;;;;;24.20;11.77;;;6.30;1.00;;;;;;4981331;28;20493;-70
2022/01/18 08:41:37;;;;;;;21.30;11.73;;;6.20;1.00;;;;;;4986525;28;20461;-71
2022/01/18 08:44:04;;;;;;;16.50;10.50;;;6.20;1.00;;;;;;4992519;28;20504;-71
2022/01/18 08:46:31;;;;;;;15.77;9.70;;;6.20;1.00;;;;;;4979961;28;20480;-71
2022/01/18 08:48:58;;;;;;;18.70;11.47;;;6.20;1.00;;;;;;4979308;28;20529;-71
2022/01/18 08:51:25;;;;;;;20.13;10.90;;;6.20;99.90;;;;;;4986031;28;20453;-71
2022/01/18 08:53:52;;;;;;;16.60;10.97;;;6.10;1.00;;;;;;4985759;28;20540;-71
2022/01/18 08:56:20;;;;;;;16.67;10.70;;;6.10;1.00;;;;;;4980264;28;20496;-71
2022/01/18 08:58:49;;;;;;;19.83;11.00;;;6.10;1.00;;;;;;4992167;28;21008;-71
2022/01/18 09:01:17;;;;;;;20.40;11.50;;;6.20;1.00;;;;;;4992345;28;20456;-71
2022/01/18 09:03:44;;;;;;;21.33;11.60;;;6.30;1.00;;;;;;4992056;28;20889;-71
2022/01/18 09:06:14;;;;;;;18.10;10.83;;;6.20;1.00;;;;;;4992677;28;20536;-71
2022/01/18 09:08:41;;;;;;;19.33;11.20;;;6.40;99.90;;;;;;4991719;28;20456;-70
2022/01/18 09:11:10;;;;;;;19.00;11.60;;;6.40;99.90;;;;;;4992116;28;20543;-70
2022/01/18 09:13:37;;;;;;;19.70;11.13;;;6.60;99.90;;;;;;4992042;28;20564;-69
2022/01/18 09:16:09;;;;;;;16.47;12.47;;;6.60;99.90;;;;;;4984292;28;20450;-71
2022/01/18 09:18:37;;;;;;;16.80;11.30;;;6.50;99.90;;;;;;4985851;28;20520;-68
2022/01/18 09:21:05;;;;;;;18.70;11.67;;;6.40;99.90;;;;;;4982047;28;20457;-72
2022/01/18 09:23:32;;;;;;;21.63;10.90;;;6.50;99.90;;;;;;4979513;28;20822;-71
2022/01/18 09:25:59;;;;;;;17.63;10.73;;;6.60;99.90;;;;;;4982078;28;20501;-71
2022/01/18 09:28:26;;;;;;;19.50;11.37;;;6.80;99.90;;;;;;4985757;28;20545;-71
2022/01/18 09:30:53;;;;;;;17.27;11.23;;;6.70;99.90;;;;;;4981835;28;20481;-70
2022/01/18 09:33:21;;;;;;;17.57;10.50;;;6.80;91.70;;;;;;4978894;28;20453;-70
2022/01/18 09:35:48;;;;;;;16.93;10.40;;;6.80;35.10;;;;;;4991514;28;20449;-70
2022/01/18 09:38:15;;;;;;;16.90;11.60;;;6.80;18.10;;;;;;4987024;28;20577;-71
2022/01/18 09:40:45;;;;;;;18.57;12.30;;;6.90;73.20;;;;;;4983741;28;20544;-70
2022/01/18 09:43:14;;;;;;;18.33;11.63;;;6.80;1.00;;;;;;4984155;28;20453;-70
2022/01/18 09:45:42;;;;;;;20.23;12.80;;;6.80;40.60;;;;;;4978742;28;20454;-70
2022/01/18 09:48:10;;;;;;;20.83;13.30;;;7.00;1.00;;;;;;4985282;28;20493;-70
2022/01/18 09:50:40;;;;;;;19.33;11.50;;;7.00;1.00;;;;;;4984850;28;20871;-68
2022/01/18 09:53:10;;;;;;;17.17;11.60;;;7.00;23.70;;;;;;4972902;28;20446;-70
2022/01/18 09:55:39;;;;;;;18.73;11.30;;;7.20;1.00;;;;;;4984952;28;20489;-68
2022/01/18 09:58:07;;;;;;;17.70;10.07;;;7.20;1.00;;;;;;4980858;28;21083;-70
2022/01/18 10:00:36;;;;;;;20.70;12.77;;;6.90;1.00;;;;;;4978279;28;20453;-71
2022/01/18 10:03:05;;;;;;;19.00;12.63;;;6.90;85.00;;;;;;4982836;28;20454;-70
2022/01/18 10:05:34;;;;;;;19.20;11.93;;;7.00;99.90;;;;;;4985231;28;20445;-71
2022/01/18 10:08:06;;;;;;;22.50;13.03;;;7.00;61.10;;;;;;4982475;28;20445;-73
2022/01/18 10:10:45;;;;;;;19.20;11.43;;;6.90;99.90;;;;;;4978269;28;20447;-70
2022/01/18 10:13:18;;;;;;;15.83;11.60;;;6.80;99.90;;;;;;4996429;28;20784;-70
2022/01/18 10:16:05;;;;;;;18.97;12.37;;;6.80;99.90;;;;;;4978527;28;20445;-70
2022/01/18 10:18:44;;;;;;;23.90;12.77;;;6.70;99.90;;;;;;4978507;28;20527;-70
2022/01/18 10:21:11;;;;;;;20.20;11.37;;;6.70;99.90;;;;;;4980344;28;20529;-70
2022/01/18 10:23:48;;;;;;;16.07;9.90;;;6.80;94.20;;;;;;4991064;28;20477;-70
2022/01/18 10:26:17;;;;;;;18.27;11.27;;;6.70;1.00;;;;;;4991526;28;20843;-70
2022/01/18 10:28:44;;;;;;;15.10;9.67;;;6.70;1.00;;;;;;4991165;28;20532;-70
2022/01/18 10:31:25;;;;;;;16.43;9.43;;;6.70;1.00;;;;;;4991476;28;20846;-70
2022/01/18 10:34:12;;;;;;;16.00;10.10;;;6.80;1.00;;;;;;4986868;28;20483;-71
2022/01/18 10:36:53;;;;;;;13.90;9.97;;;6.70;1.00;;;;;;4997301;28;20840;-70
2022/01/18 10:39:26;;;;;;;14.80;9.53;;;6.60;1.00;;;;;;4984605;28;20478;-70
2022/01/18 10:41:54;;;;;;;14.97;9.20;;;6.70;1.00;;;;;;4988199;28;20456;-70
2022/01/18 10:44:22;;;;;;;20.80;11.77;;;6.80;99.90;;;;;;4996893;28;20453;-72
2022/01/18 10:46:51;;;;;;;15.27;10.20;;;6.80;1.00;;;;;;4986740;28;20503;-72
2022/01/18 10:49:36;;;;;;;16.00;10.20;;;6.80;1.00;;;;;;4984258;28;20453;-72
2022/01/18 10:52:06;;;;;;;17.00;9.73;;;6.80;1.00;;;;;;4986470;28;20453;-71
2022/01/18 10:54:44;;;;;;;19.47;9.77;;;6.90;99.90;;;;;;4991643;28;20620;-71
2022/01/18 10:57:12;;;;;;;16.20;9.70;;;6.80;99.90;;;;;;4991073;28;20516;-71
2022/01/18 10:59:41;;;;;;;18.60;10.40;;;6.90;99.90;;;;;;4984791;28;20583;-69
2022/01/18 11:02:14;;;;;;;14.67;9.60;;;6.80;99.90;;;;;;4984389;28;20452;-70
2022/01/18 11:04:46;;;;;;;17.40;9.50;;;6.90;95.60;;;;;;4988761;28;20445;-71
2022/01/18 11:07:14;;;;;;;18.27;9.93;;;6.90;99.90;;;;;;4991134;28;20445;-71
2022/01/18 11:09:43;;;;;;;16.13;8.20;;;6.80;99.90;;;;;;4987213;28;20457;-71
2022/01/18 11:12:11;;;;;;;18.57;10.47;;;7.00;99.90;;;;;;4984391;28;20483;-71
2022/01/18 11:14:43;;;;;;;14.43;8.73;;;7.00;92.50;;;;;;5006368;28;20925;-69
2022/01/18 11:17:14;;;;;;;16.20;8.63;;;6.90;99.90;;;;;;4984296;28;20448;-71
2022/01/18 11:19:41;;;;;;;15.07;9.00;;;6.80;99.90;;;;;;4984765;28;21064;-71
2022/01/18 11:22:10;;;;;;;13.13;7.40;;;7.00;28.60;;;;;;4990363;28;21025;-70
2022/01/18 11:24:40;;;;;;;19.23;8.23;;;6.90;1.00;;;;;;4990800;28;20448;-69
2022/01/18 11:27:12;;;;;;;14.43;8.47;;;7.10;1.00;;;;;;4990806;28;20513;-70
2022/01/18 11:29:40;;;;;;;15.53;8.90;;;7.10;1.00;;;;;;4990634;28;20527;-70
2022/01/18 11:32:07;;;;;;;15.17;8.77;;;7.10;1.00;;;;;;4986121;28;20453;-71
2022/01/18 11:34:54;;;;;;;14.97;8.40;;;7.10;1.00;;;;;;4982085;28;20533;-72
2022/01/18 11:37:29;;;;;;;8.63;6.97;;;7.00;1.00;;;;;;4994613;28;20460;-72
2022/01/18 11:40:01;;;;;;;11.30;7.30;;;7.10;1.00;;;;;;4980461;28;20472;-72
2022/01/18 11:42:50;;;;;;;13.60;8.10;;;7.10;99.90;;;;;;4986017;28;20448;-72
2022/01/18 11:45:39;;;;;;;14.50;8.77;;;7.20;99.90;;;;;;4975116;28;20570;-72
2022/01/18 11:48:10;;;;;;;11.23;7.70;;;7.00;99.90;;;;;;4974934;28;20826;-71
2022/01/18 11:50:41;;;;;;;15.00;8.50;;;6.90;99.90;;;;;;4974169;28;20457;-71
2022/01/18 11:53:38;;;;;;;12.43;8.23;;;7.00;99.90;;;;;;4975080;28;20454;-72
2022/01/18 11:56:12;;;;;;;12.60;7.60;;;7.10;99.90;;;;;;4974987;28;20473;-72
2022/01/18 11:58:42;;;;;;;10.87;7.70;;;7.10;99.90;;;;;;4974292;28;20529;-71
2022/01/18 12:01:12;;;;;;;8.27;7.33;;;7.10;99.90;;;;;;4981144;28;20453;-72
2022/01/18 12:03:48;;;;;;;10.70;6.70;;;7.00;12.60;;;;;;4979915;28;20454;-71
2022/01/18 12:06:15;;;;;;;10.43;6.80;;;7.30;1.00;;;;;;4985504;28;20544;-72
2022/01/18 12:08:43;;;;;;;10.50;5.83;;;;;;;;;;4986507;28;21009;-72
2022/01/18 12:11:11;;;;;;;12.43;5.83;;;;;;;;;;4982841;28;20476;-72
2022/01/18 12:13:47;;;;;;;6.80;4.73;;;;;;;;;;4999260;28;20460;-70
2022/01/18 12:16:22;;;;;;;6.87;5.87;;;;;;;;;;4983317;28;20454;-72
2022/01/18 12:19:08;;;;;;;9.80;5.40;;;;;;;;;;4986457;28;20524;-72
2022/01/18 12:21:36;;;;;;;9.30;5.50;;;;;;;;;;4987203;28;20437;-72
2022/01/18 12:24:18;;;;;;;9.60;6.00;;;;;;;;;;4981970;28;20456;-72
2022/01/18 12:26:48;;;;;;;9.83;6.63;;;;;;;;;;4977635;28;20499;-72
2022/01/18 12:29:24;;;;;;;14.27;7.10;;;;;;;;;;4982373;28;20489;-72
2022/01/18 12:34:38;;;;;;;12.47;8.30;;;;;;;;;;4961070;28;20973;-70
2022/01/18 12:37:24;;;;;;;8.77;6.20;;;;;;;;;;4993459;28;20495;-70
2022/01/18 12:40:05;;;;;;;17.97;7.03;;;;;;;;;;4967691;28;20489;-70
2022/01/18 12:45:19;;;;;;;12.03;6.30;;;;;;;;;;4951117;28;20437;-70
2022/01/18 12:47:48;;;;;;;7.73;5.90;;;;;;;;;;4986095;28;20779;-68
2022/01/18 12:50:17;;;;;;;13.07;5.90;;;;;;;;;;4983587;28;20956;-70
2022/01/18 12:52:47;;;;;;;9.27;5.30;;;;;;;;;;4979587;28;20445;-70
2022/01/18 12:55:32;;;;;;;10.50;5.63;;;;;;;;;;4981432;28;20497;-70
2022/01/18 12:58:03;;;;;;;9.27;5.00;;;;;;;;;;4980393;28;21095;-70
2022/01/18 13:00:36;;;;;;;10.10;5.47;;;;;;;;;;4979025;28;20996;-70
2022/01/18 13:03:03;;;;;;;9.77;6.53;;;;;;;;;;4983810;28;20749;-70
2022/01/18 13:05:35;;;;;;;8.77;5.70;;;;;;;;;;4986148;28;20489;-72
2022/01/18 13:08:03;;;;;;;7.37;4.73;;;;;;;;;;4982496;28;20453;-72
2022/01/18 13:10:48;;;;;;;6.17;3.33;;;;;;;;;;4978953;28;20461;-70
2022/01/18 13:13:16;;;;;;;6.90;3.70;;;;;;;;;;4998329;28;20444;-70
2022/01/18 13:15:53;;;;;;;4.97;2.70;;;;;;;;;;4986240;28;20445;-70
2022/01/18 13:23:57;;;;;;;6.23;3.40;;;;;;;;;;4978875;28;20860;-70
2022/01/18 13:26:32;;;;;;;5.20;4.07;;;;;;;;;;4979359;28;20532;-70
2022/01/18 13:29:11;;;;;;;6.97;3.60;;;;;;;;;;4983484;28;20484;-70
2022/01/18 13:31:40;;;;;;;9.67;3.87;;;;;;;;;;4984880;28;20442;-68
2022/01/18 13:34:11;;;;;;;6.80;4.33;;;;;;;;;;4983297;28;20609;-70
2022/01/18 13:36:49;;;;;;;12.07;4.30;;;;;;;;;;4991786;28;20480;-68
2022/01/18 13:39:28;;;;;;;4.97;3.83;;;;;;;;;;4979132;28;20565;-70
2022/01/18 13:41:55;;;;;;;7.30;3.73;;;;;;;;;;4982396;28;20488;-70
2022/01/18 13:44:23;;;;;;;4.33;3.03;;;;;;;;;;4989933;28;20870;-70
2022/01/18 13:46:51;;;;;;;4.73;3.00;;;;;;;;;;4981263;28;20488;-70
2022/01/18 13:49:23;;;;;;;4.93;3.97;;;;;;;;;;4978740;28;20457;-70
2022/01/18 13:52:03;;;;;;;4.67;3.33;;;;;;;;;;4980698;28;20469;-70
2022/01/18 13:54:43;;;;;;;7.57;3.57;;;;;;;;;;4985460;28;20517;-70
2022/01/18 13:57:10;;;;;;;11.10;3.77;;;;;;;;;;4985264;28;20495;-70
2022/01/18 13:59:38;;;;;;;4.40;3.30;;;;;;;;;;4979979;28;20481;-70
2022/01/18 14:02:14;;;;;;;3.80;3.17;;;;;;;;;;4978752;28;20468;-70
2022/01/18 14:04:41;;;;;;;9.73;3.60;;;;;;;;;;4981508;28;20442;-70
2022/01/18 14:07:09;;;;;;;6.27;3.53;;;;;;;;;;4985607;28;20540;-73
2022/01/18 14:09:36;;;;;;;9.43;4.53;;;;;;;;;;4982425;28;20790;-69
2022/01/18 14:12:05;;;;;;;6.67;3.67;;;;;;;;;;4978198;28;20461;-71
2022/01/18 14:14:34;;;;;;;6.13;3.87;;;;;;;;;;5001261;28;20449;-73